sensor_id;sensor_type;location;lat;lon;timestamp;P1;durP1;ratioP1;P2;durP2;ratioP2
79088;SDS011;68489;50.286;9.452;2023-04-16T00:00:56;18.37;;;7.97;;
79088;SDS011;68489;50.286;9.452;2023-04-16T00:03:21;14.50;;;5.53;;
79088;SDS011;68489;50.286;9.452;2023-04-16T00:05:47;17.02;;;6.32;;
79088;SDS011;68489;50.286;9.452;2023-04-16T00:08:13;18.88;;;5.95;;
79088;SDS011;68489;50.286;9.452;2023-04-16T00:10:38;20.17;;;7.25;;
79088;SDS011;68489;50.286;9.452;2023-04-16T00:13:03;17.27;;;7.17;;
79088;SDS011;68489;50.286;9.452;2023-04-16T00:15:29;19.88;;;7.25;;
79088;SDS011;68489;50.286;9.452;2023-04-16T00:17:54;18.37;;;7.37;;
79088;SDS011;68489;50.286;9.452;2023-04-16T00:20:19;22.52;;;8.00;;
79088;SDS011;68489;50.286;9.452;2023-04-16T00:22:45;19.83;;;7.00;;
79088;SDS011;68489;50.286;9.452;2023-04-16T00:25:10;21.15;;;8.90;;
79088;SDS011;68489;50.286;9.452;2023-04-16T00:27:35;21.90;;;9.17;;
79088;SDS011;68489;50.286;9.452;2023-04-16T00:30:01;21.77;;;7.73;;
79088;SDS011;68489;50.286;9.452;2023-04-16T00:32:26;23.17;;;9.52;;
79088;SDS011;68489;50.286;9.452;2023-04-16T00:34:52;21.90;;;8.25;;
79088;SDS011;68489;50.286;9.452;2023-04-16T00:37:17;19.17;;;7.53;;
79088;SDS011;68489;50.286;9.452;2023-04-16T00:39:42;20.67;;;8.43;;
79088;SDS011;68489;50.286;9.452;2023-04-16T00:42:07;25.13;;;9.07;;
79088;SDS011;68489;50.286;9.452;2023-04-16T00:44:32;22.43;;;8.77;;
79088;SDS011;68489;50.286;9.452;2023-04-16T00:47:01;23.42;;;7.28;;
79088;SDS011;68489;50.286;9.452;2023-04-16T00:49:28;21.60;;;6.93;;
79088;SDS011;68489;50.286;9.452;2023-04-16T00:51:54;20.05;;;7.63;;
79088;SDS011;68489;50.286;9.452;2023-04-16T00:54:19;21.98;;;8.48;;
79088;SDS011;68489;50.286;9.452;2023-04-16T00:56:45;20.02;;;8.55;;
79088;SDS011;68489;50.286;9.452;2023-04-16T00:59:10;20.25;;;8.77;;
79088;SDS011;68489;50.286;9.452;2023-04-16T01:01:36;23.77;;;8.87;;
79088;SDS011;68489;50.286;9.452;2023-04-16T01:04:01;22.43;;;9.93;;
79088;SDS011;68489;50.286;9.452;2023-04-16T01:06:26;22.70;;;9.18;;
79088;SDS011;68489;50.286;9.452;2023-04-16T01:08:52;22.52;;;9.68;;
79088;SDS011;68489;50.286;9.452;2023-04-16T01:11:17;21.47;;;9.47;;
79088;SDS011;68489;50.286;9.452;2023-04-16T01:13:42;24.15;;;10.38;;
79088;SDS011;68489;50.286;9.452;2023-04-16T01:16:08;23.20;;;9.77;;
79088;SDS011;68489;50.286;9.452;2023-04-16T01:18:35;23.10;;;9.65;;
79088;SDS011;68489;50.286;9.452;2023-04-16T01:21:01;25.65;;;10.25;;
79088;SDS011;68489;50.286;9.452;2023-04-16T01:23:27;20.52;;;8.98;;
79088;SDS011;68489;50.286;9.452;2023-04-16T01:25:53;23.33;;;8.27;;
79088;SDS011;68489;50.286;9.452;2023-04-16T01:28:18;23.90;;;9.60;;
79088;SDS011;68489;50.286;9.452;2023-04-16T01:30:43;23.80;;;9.27;;
79088;SDS011;68489;50.286;9.452;2023-04-16T01:33:11;25.07;;;9.40;;
79088;SDS011;68489;50.286;9.452;2023-04-16T01:35:38;18.60;;;7.93;;
79088;SDS011;68489;50.286;9.452;2023-04-16T01:38:04;18.50;;;8.32;;
79088;SDS011;68489;50.286;9.452;2023-04-16T01:40:31;21.40;;;9.15;;
79088;SDS011;68489;50.286;9.452;2023-04-16T01:42:57;21.55;;;8.82;;
79088;SDS011;68489;50.286;9.452;2023-04-16T01:45:22;21.70;;;8.73;;
79088;SDS011;68489;50.286;9.452;2023-04-16T01:47:48;20.53;;;8.83;;
79088;SDS011;68489;50.286;9.452;2023-04-16T01:50:15;23.83;;;8.55;;
79088;SDS011;68489;50.286;9.452;2023-04-16T01:52:40;21.30;;;9.52;;
79088;SDS011;68489;50.286;9.452;2023-04-16T01:55:06;22.63;;;8.97;;
79088;SDS011;68489;50.286;9.452;2023-04-16T01:57:31;23.15;;;9.82;;
79088;SDS011;68489;50.286;9.452;2023-04-16T01:59:56;23.00;;;8.77;;
79088;SDS011;68489;50.286;9.452;2023-04-16T02:02:22;23.60;;;9.00;;
79088;SDS011;68489;50.286;9.452;2023-04-16T02:04:51;25.05;;;9.07;;
79088;SDS011;68489;50.286;9.452;2023-04-16T02:07:17;24.88;;;9.63;;
79088;SDS011;68489;50.286;9.452;2023-04-16T02:09:42;25.37;;;9.43;;
79088;SDS011;68489;50.286;9.452;2023-04-16T02:12:08;20.83;;;9.15;;
79088;SDS011;68489;50.286;9.452;2023-04-16T02:14:35;27.63;;;9.90;;
79088;SDS011;68489;50.286;9.452;2023-04-16T02:17:00;23.27;;;10.33;;
79088;SDS011;68489;50.286;9.452;2023-04-16T02:19:26;21.48;;;9.75;;
79088;SDS011;68489;50.286;9.452;2023-04-16T02:21:51;22.80;;;9.80;;
79088;SDS011;68489;50.286;9.452;2023-04-16T02:24:17;25.35;;;10.10;;
79088;SDS011;68489;50.286;9.452;2023-04-16T02:26:42;23.83;;;9.57;;
79088;SDS011;68489;50.286;9.452;2023-04-16T02:29:09;23.90;;;10.48;;
79088;SDS011;68489;50.286;9.452;2023-04-16T02:31:34;24.92;;;10.10;;
79088;SDS011;68489;50.286;9.452;2023-04-16T02:34:00;22.03;;;9.77;;
79088;SDS011;68489;50.286;9.452;2023-04-16T02:36:25;25.15;;;9.57;;
79088;SDS011;68489;50.286;9.452;2023-04-16T02:38:51;23.60;;;8.95;;
79088;SDS011;68489;50.286;9.452;2023-04-16T02:41:16;22.40;;;9.50;;
79088;SDS011;68489;50.286;9.452;2023-04-16T02:43:41;19.70;;;9.17;;
79088;SDS011;68489;50.286;9.452;2023-04-16T02:46:07;21.40;;;8.97;;
79088;SDS011;68489;50.286;9.452;2023-04-16T02:48:32;19.00;;;8.00;;
79088;SDS011;68489;50.286;9.452;2023-04-16T02:50:57;17.47;;;8.30;;
79088;SDS011;68489;50.286;9.452;2023-04-16T02:53:23;22.48;;;8.60;;
79088;SDS011;68489;50.286;9.452;2023-04-16T02:55:49;20.10;;;8.68;;
79088;SDS011;68489;50.286;9.452;2023-04-16T02:58:19;19.70;;;8.00;;
79088;SDS011;68489;50.286;9.452;2023-04-16T03:00:45;14.90;;;6.93;;
79088;SDS011;68489;50.286;9.452;2023-04-16T03:03:10;19.08;;;8.10;;
79088;SDS011;68489;50.286;9.452;2023-04-16T03:05:35;17.13;;;7.53;;
79088;SDS011;68489;50.286;9.452;2023-04-16T03:08:02;17.27;;;8.00;;
79088;SDS011;68489;50.286;9.452;2023-04-16T03:10:27;20.83;;;8.43;;
79088;SDS011;68489;50.286;9.452;2023-04-16T03:12:53;17.63;;;8.20;;
79088;SDS011;68489;50.286;9.452;2023-04-16T03:15:18;22.07;;;9.03;;
79088;SDS011;68489;50.286;9.452;2023-04-16T03:17:43;19.40;;;7.90;;
79088;SDS011;68489;50.286;9.452;2023-04-16T03:20:08;19.47;;;8.37;;
79088;SDS011;68489;50.286;9.452;2023-04-16T03:22:34;20.15;;;8.60;;
79088;SDS011;68489;50.286;9.452;2023-04-16T03:24:59;20.50;;;8.20;;
79088;SDS011;68489;50.286;9.452;2023-04-16T03:27:24;17.27;;;8.30;;
79088;SDS011;68489;50.286;9.452;2023-04-16T03:29:50;19.33;;;7.70;;
79088;SDS011;68489;50.286;9.452;2023-04-16T03:32:15;17.57;;;7.17;;
79088;SDS011;68489;50.286;9.452;2023-04-16T03:34:41;16.52;;;7.60;;
79088;SDS011;68489;50.286;9.452;2023-04-16T03:37:06;16.63;;;7.37;;
79088;SDS011;68489;50.286;9.452;2023-04-16T03:39:33;20.38;;;8.30;;
79088;SDS011;68489;50.286;9.452;2023-04-16T03:41:58;17.63;;;7.90;;
79088;SDS011;68489;50.286;9.452;2023-04-16T03:44:24;18.77;;;8.70;;
79088;SDS011;68489;50.286;9.452;2023-04-16T03:46:49;19.58;;;8.15;;
79088;SDS011;68489;50.286;9.452;2023-04-16T03:49:14;17.67;;;7.60;;
79088;SDS011;68489;50.286;9.452;2023-04-16T03:51:40;18.83;;;6.97;;
79088;SDS011;68489;50.286;9.452;2023-04-16T03:54:05;17.63;;;7.43;;
79088;SDS011;68489;50.286;9.452;2023-04-16T03:56:30;19.13;;;8.10;;
79088;SDS011;68489;50.286;9.452;2023-04-16T03:58:55;19.00;;;7.53;;
79088;SDS011;68489;50.286;9.452;2023-04-16T04:01:21;18.00;;;7.60;;
79088;SDS011;68489;50.286;9.452;2023-04-16T04:03:46;19.50;;;7.60;;
79088;SDS011;68489;50.286;9.452;2023-04-16T04:06:11;20.50;;;8.33;;
79088;SDS011;68489;50.286;9.452;2023-04-16T04:08:37;17.70;;;7.57;;
79088;SDS011;68489;50.286;9.452;2023-04-16T04:11:02;18.67;;;7.20;;
79088;SDS011;68489;50.286;9.452;2023-04-16T04:13:27;18.77;;;8.05;;
79088;SDS011;68489;50.286;9.452;2023-04-16T04:15:53;19.20;;;8.20;;
79088;SDS011;68489;50.286;9.452;2023-04-16T04:18:18;19.97;;;8.93;;
79088;SDS011;68489;50.286;9.452;2023-04-16T04:20:43;18.50;;;8.03;;
79088;SDS011;68489;50.286;9.452;2023-04-16T04:23:09;18.75;;;8.13;;
79088;SDS011;68489;50.286;9.452;2023-04-16T04:25:34;20.50;;;8.73;;
79088;SDS011;68489;50.286;9.452;2023-04-16T04:27:59;20.15;;;8.35;;
79088;SDS011;68489;50.286;9.452;2023-04-16T04:30:25;17.13;;;8.57;;
79088;SDS011;68489;50.286;9.452;2023-04-16T04:32:50;20.40;;;7.53;;
79088;SDS011;68489;50.286;9.452;2023-04-16T04:35:15;19.00;;;8.07;;
79088;SDS011;68489;50.286;9.452;2023-04-16T04:37:40;19.13;;;8.50;;
79088;SDS011;68489;50.286;9.452;2023-04-16T04:40:06;18.47;;;7.93;;
79088;SDS011;68489;50.286;9.452;2023-04-16T04:42:32;19.15;;;8.27;;
79088;SDS011;68489;50.286;9.452;2023-04-16T04:44:57;19.50;;;7.97;;
79088;SDS011;68489;50.286;9.452;2023-04-16T04:47:22;19.30;;;7.87;;
79088;SDS011;68489;50.286;9.452;2023-04-16T04:49:47;17.23;;;7.17;;
79088;SDS011;68489;50.286;9.452;2023-04-16T04:52:12;21.63;;;7.87;;
79088;SDS011;68489;50.286;9.452;2023-04-16T04:54:38;18.97;;;8.13;;
79088;SDS011;68489;50.286;9.452;2023-04-16T04:57:05;19.60;;;8.23;;
79088;SDS011;68489;50.286;9.452;2023-04-16T04:59:31;20.27;;;7.85;;
79088;SDS011;68489;50.286;9.452;2023-04-16T05:01:56;18.67;;;8.07;;
79088;SDS011;68489;50.286;9.452;2023-04-16T05:04:21;18.37;;;7.63;;
79088;SDS011;68489;50.286;9.452;2023-04-16T05:06:46;21.13;;;8.07;;
79088;SDS011;68489;50.286;9.452;2023-04-16T05:09:11;20.77;;;8.57;;
79088;SDS011;68489;50.286;9.452;2023-04-16T05:11:37;19.83;;;7.87;;
79088;SDS011;68489;50.286;9.452;2023-04-16T05:14:03;20.13;;;8.95;;
79088;SDS011;68489;50.286;9.452;2023-04-16T05:16:28;23.60;;;8.13;;
79088;SDS011;68489;50.286;9.452;2023-04-16T05:18:54;20.75;;;8.55;;
79088;SDS011;68489;50.286;9.452;2023-04-16T05:21:20;17.73;;;7.68;;
79088;SDS011;68489;50.286;9.452;2023-04-16T05:23:45;16.95;;;7.93;;
79088;SDS011;68489;50.286;9.452;2023-04-16T05:26:11;18.43;;;7.93;;
79088;SDS011;68489;50.286;9.452;2023-04-16T05:28:36;17.00;;;7.27;;
79088;SDS011;68489;50.286;9.452;2023-04-16T05:31:01;15.87;;;6.87;;
79088;SDS011;68489;50.286;9.452;2023-04-16T05:33:26;18.67;;;8.17;;
79088;SDS011;68489;50.286;9.452;2023-04-16T05:35:52;16.67;;;7.33;;
79088;SDS011;68489;50.286;9.452;2023-04-16T05:38:17;17.33;;;7.63;;
79088;SDS011;68489;50.286;9.452;2023-04-16T05:40:42;18.30;;;7.90;;
79088;SDS011;68489;50.286;9.452;2023-04-16T05:43:07;18.43;;;6.87;;
79088;SDS011;68489;50.286;9.452;2023-04-16T05:45:33;15.60;;;6.83;;
79088;SDS011;68489;50.286;9.452;2023-04-16T05:48:03;19.35;;;8.10;;
79088;SDS011;68489;50.286;9.452;2023-04-16T05:50:29;19.38;;;6.07;;
79088;SDS011;68489;50.286;9.452;2023-04-16T05:52:54;18.33;;;7.10;;
79088;SDS011;68489;50.286;9.452;2023-04-16T05:55:19;20.70;;;7.63;;
79088;SDS011;68489;50.286;9.452;2023-04-16T05:57:45;19.13;;;7.70;;
79088;SDS011;68489;50.286;9.452;2023-04-16T06:00:10;21.50;;;7.55;;
79088;SDS011;68489;50.286;9.452;2023-04-16T06:02:35;19.30;;;7.55;;
79088;SDS011;68489;50.286;9.452;2023-04-16T06:05:01;19.90;;;7.40;;
79088;SDS011;68489;50.286;9.452;2023-04-16T06:07:26;17.23;;;8.70;;
79088;SDS011;68489;50.286;9.452;2023-04-16T06:09:51;18.17;;;7.03;;
79088;SDS011;68489;50.286;9.452;2023-04-16T06:12:16;18.47;;;7.33;;
79088;SDS011;68489;50.286;9.452;2023-04-16T06:14:42;27.17;;;12.27;;
79088;SDS011;68489;50.286;9.452;2023-04-16T06:17:07;21.00;;;7.80;;
79088;SDS011;68489;50.286;9.452;2023-04-16T06:19:32;19.10;;;7.50;;
79088;SDS011;68489;50.286;9.452;2023-04-16T06:21:57;19.53;;;7.60;;
79088;SDS011;68489;50.286;9.452;2023-04-16T06:24:23;24.40;;;11.07;;
79088;SDS011;68489;50.286;9.452;2023-04-16T06:26:48;19.80;;;9.40;;
79088;SDS011;68489;50.286;9.452;2023-04-16T06:29:13;17.80;;;7.30;;
79088;SDS011;68489;50.286;9.452;2023-04-16T06:31:39;18.17;;;7.35;;
79088;SDS011;68489;50.286;9.452;2023-04-16T06:34:05;19.35;;;7.57;;
79088;SDS011;68489;50.286;9.452;2023-04-16T06:36:30;20.27;;;7.97;;
79088;SDS011;68489;50.286;9.452;2023-04-16T06:38:55;16.58;;;7.35;;
79088;SDS011;68489;50.286;9.452;2023-04-16T06:41:20;17.63;;;7.63;;
79088;SDS011;68489;50.286;9.452;2023-04-16T06:43:47;18.63;;;7.47;;
79088;SDS011;68489;50.286;9.452;2023-04-16T06:46:12;19.60;;;7.27;;
79088;SDS011;68489;50.286;9.452;2023-04-16T06:48:38;20.20;;;7.90;;
79088;SDS011;68489;50.286;9.452;2023-04-16T06:51:03;18.37;;;6.37;;
79088;SDS011;68489;50.286;9.452;2023-04-16T06:53:28;18.30;;;7.73;;
79088;SDS011;68489;50.286;9.452;2023-04-16T06:55:53;17.10;;;5.50;;
79088;SDS011;68489;50.286;9.452;2023-04-16T06:58:19;17.92;;;7.18;;
79088;SDS011;68489;50.286;9.452;2023-04-16T07:00:44;16.58;;;6.03;;
79088;SDS011;68489;50.286;9.452;2023-04-16T07:03:10;18.15;;;6.75;;
79088;SDS011;68489;50.286;9.452;2023-04-16T07:05:35;15.77;;;5.57;;
79088;SDS011;68489;50.286;9.452;2023-04-16T07:08:00;13.50;;;4.53;;
79088;SDS011;68489;50.286;9.452;2023-04-16T07:10:26;15.20;;;5.77;;
79088;SDS011;68489;50.286;9.452;2023-04-16T07:12:51;13.27;;;5.33;;
79088;SDS011;68489;50.286;9.452;2023-04-16T07:15:16;14.80;;;6.07;;
79088;SDS011;68489;50.286;9.452;2023-04-16T07:17:42;13.20;;;5.40;;
79088;SDS011;68489;50.286;9.452;2023-04-16T07:20:07;12.97;;;5.00;;
79088;SDS011;68489;50.286;9.452;2023-04-16T07:22:33;15.70;;;4.97;;
79088;SDS011;68489;50.286;9.452;2023-04-16T07:24:58;12.83;;;4.43;;
79088;SDS011;68489;50.286;9.452;2023-04-16T07:27:23;12.10;;;5.00;;
79088;SDS011;68489;50.286;9.452;2023-04-16T07:29:48;12.93;;;5.70;;
79088;SDS011;68489;50.286;9.452;2023-04-16T07:32:14;12.90;;;4.95;;
79088;SDS011;68489;50.286;9.452;2023-04-16T07:34:40;13.32;;;5.32;;
79088;SDS011;68489;50.286;9.452;2023-04-16T07:37:05;14.17;;;5.20;;
79088;SDS011;68489;50.286;9.452;2023-04-16T07:39:30;12.73;;;5.47;;
79088;SDS011;68489;50.286;9.452;2023-04-16T07:41:55;14.27;;;4.87;;
79088;SDS011;68489;50.286;9.452;2023-04-16T07:44:21;12.63;;;4.37;;
79088;SDS011;68489;50.286;9.452;2023-04-16T07:46:46;11.67;;;5.10;;
79088;SDS011;68489;50.286;9.452;2023-04-16T07:49:11;12.73;;;5.13;;
79088;SDS011;68489;50.286;9.452;2023-04-16T07:51:36;13.07;;;4.73;;
79088;SDS011;68489;50.286;9.452;2023-04-16T07:54:02;11.03;;;4.23;;
79088;SDS011;68489;50.286;9.452;2023-04-16T07:56:27;12.57;;;4.93;;
79088;SDS011;68489;50.286;9.452;2023-04-16T07:58:52;13.03;;;5.20;;
79088;SDS011;68489;50.286;9.452;2023-04-16T08:01:17;13.63;;;5.27;;
79088;SDS011;68489;50.286;9.452;2023-04-16T08:03:43;10.95;;;4.38;;
79088;SDS011;68489;50.286;9.452;2023-04-16T08:06:08;11.43;;;5.13;;
79088;SDS011;68489;50.286;9.452;2023-04-16T08:08:34;28.27;;;14.82;;
79088;SDS011;68489;50.286;9.452;2023-04-16T08:10:59;9.93;;;4.40;;
79088;SDS011;68489;50.286;9.452;2023-04-16T08:13:24;12.67;;;4.63;;
79088;SDS011;68489;50.286;9.452;2023-04-16T08:15:50;10.23;;;4.43;;
79088;SDS011;68489;50.286;9.452;2023-04-16T08:18:15;11.20;;;4.80;;
79088;SDS011;68489;50.286;9.452;2023-04-16T08:20:41;12.57;;;5.15;;
79088;SDS011;68489;50.286;9.452;2023-04-16T08:23:06;11.18;;;4.85;;
79088;SDS011;68489;50.286;9.452;2023-04-16T08:25:32;11.30;;;4.13;;
79088;SDS011;68489;50.286;9.452;2023-04-16T08:27:57;11.33;;;5.00;;
79088;SDS011;68489;50.286;9.452;2023-04-16T08:30:22;12.17;;;5.27;;
79088;SDS011;68489;50.286;9.452;2023-04-16T08:32:47;11.02;;;4.97;;
79088;SDS011;68489;50.286;9.452;2023-04-16T08:35:13;11.32;;;4.63;;
79088;SDS011;68489;50.286;9.452;2023-04-16T08:37:39;11.82;;;4.97;;
79088;SDS011;68489;50.286;9.452;2023-04-16T08:40:04;12.02;;;4.68;;
79088;SDS011;68489;50.286;9.452;2023-04-16T08:42:32;22.50;;;10.43;;
79088;SDS011;68489;50.286;9.452;2023-04-16T08:45:05;13.88;;;6.85;;
79088;SDS011;68489;50.286;9.452;2023-04-16T08:47:38;19.85;;;9.77;;
79088;SDS011;68489;50.286;9.452;2023-04-16T08:50:05;11.32;;;5.05;;
79088;SDS011;68489;50.286;9.452;2023-04-16T08:52:32;11.20;;;4.85;;
79088;SDS011;68489;50.286;9.452;2023-04-16T08:55:11;12.63;;;5.15;;
79088;SDS011;68489;50.286;9.452;2023-04-16T08:57:38;11.20;;;4.95;;
79088;SDS011;68489;50.286;9.452;2023-04-16T09:00:11;11.00;;;4.47;;
79088;SDS011;68489;50.286;9.452;2023-04-16T09:02:37;9.95;;;3.85;;
79088;SDS011;68489;50.286;9.452;2023-04-16T09:05:04;9.73;;;4.40;;
79088;SDS011;68489;50.286;9.452;2023-04-16T09:07:31;10.85;;;4.90;;
79088;SDS011;68489;50.286;9.452;2023-04-16T09:09:58;10.90;;;3.88;;
79088;SDS011;68489;50.286;9.452;2023-04-16T09:12:24;9.30;;;3.83;;
79088;SDS011;68489;50.286;9.452;2023-04-16T09:14:50;18.52;;;8.90;;
79088;SDS011;68489;50.286;9.452;2023-04-16T09:17:15;15.40;;;7.25;;
79088;SDS011;68489;50.286;9.452;2023-04-16T09:19:42;10.20;;;4.82;;
79088;SDS011;68489;50.286;9.452;2023-04-16T09:22:07;11.07;;;5.00;;
79088;SDS011;68489;50.286;9.452;2023-04-16T09:24:33;9.27;;;3.53;;
79088;SDS011;68489;50.286;9.452;2023-04-16T09:26:59;10.15;;;4.30;;
79088;SDS011;68489;50.286;9.452;2023-04-16T09:29:37;8.38;;;3.58;;
79088;SDS011;68489;50.286;9.452;2023-04-16T09:32:05;9.18;;;4.53;;
79088;SDS011;68489;50.286;9.452;2023-04-16T09:34:32;9.48;;;3.80;;
79088;SDS011;68489;50.286;9.452;2023-04-16T09:37:14;8.40;;;3.47;;
79088;SDS011;68489;50.286;9.452;2023-04-16T09:39:41;9.02;;;3.30;;
79088;SDS011;68489;50.286;9.452;2023-04-16T09:42:07;9.43;;;3.40;;
79088;SDS011;68489;50.286;9.452;2023-04-16T09:44:36;9.25;;;3.35;;
79088;SDS011;68489;50.286;9.452;2023-04-16T09:47:05;8.70;;;3.80;;
79088;SDS011;68489;50.286;9.452;2023-04-16T09:52:07;8.25;;;3.70;;
79088;SDS011;68489;50.286;9.452;2023-04-16T09:54:37;8.18;;;3.17;;
79088;SDS011;68489;50.286;9.452;2023-04-16T09:57:06;8.85;;;3.55;;
79088;SDS011;68489;50.286;9.452;2023-04-16T09:59:34;9.15;;;3.47;;
79088;SDS011;68489;50.286;9.452;2023-04-16T10:01:59;8.30;;;3.85;;
79088;SDS011;68489;50.286;9.452;2023-04-16T10:04:25;9.95;;;4.03;;
79088;SDS011;68489;50.286;9.452;2023-04-16T10:07:04;8.48;;;3.78;;
79088;SDS011;68489;50.286;9.452;2023-04-16T10:09:31;8.23;;;4.35;;
79088;SDS011;68489;50.286;9.452;2023-04-16T10:11:57;12.65;;;3.65;;
79088;SDS011;68489;50.286;9.452;2023-04-16T10:14:23;7.88;;;3.10;;
79088;SDS011;68489;50.286;9.452;2023-04-16T10:16:48;8.90;;;3.03;;
79088;SDS011;68489;50.286;9.452;2023-04-16T10:19:13;7.95;;;2.75;;
79088;SDS011;68489;50.286;9.452;2023-04-16T10:21:39;9.00;;;4.10;;
79088;SDS011;68489;50.286;9.452;2023-04-16T10:24:05;10.25;;;3.55;;
79088;SDS011;68489;50.286;9.452;2023-04-16T10:26:32;8.10;;;3.92;;
79088;SDS011;68489;50.286;9.452;2023-04-16T10:28:57;9.00;;;4.32;;
79088;SDS011;68489;50.286;9.452;2023-04-16T10:31:23;10.00;;;3.83;;
79088;SDS011;68489;50.286;9.452;2023-04-16T10:33:49;10.38;;;4.13;;
79088;SDS011;68489;50.286;9.452;2023-04-16T10:36:20;10.98;;;4.32;;
79088;SDS011;68489;50.286;9.452;2023-04-16T10:38:51;10.90;;;4.53;;
79088;SDS011;68489;50.286;9.452;2023-04-16T10:41:20;9.73;;;3.88;;
79088;SDS011;68489;50.286;9.452;2023-04-16T10:43:48;10.45;;;4.10;;
79088;SDS011;68489;50.286;9.452;2023-04-16T10:46:21;10.25;;;3.80;;
79088;SDS011;68489;50.286;9.452;2023-04-16T10:48:48;10.70;;;4.38;;
79088;SDS011;68489;50.286;9.452;2023-04-16T10:51:37;14.18;;;6.82;;
79088;SDS011;68489;50.286;9.452;2023-04-16T10:54:02;12.82;;;5.47;;
79088;SDS011;68489;50.286;9.452;2023-04-16T10:56:30;11.95;;;5.90;;
79088;SDS011;68489;50.286;9.452;2023-04-16T10:58:56;13.10;;;6.18;;
79088;SDS011;68489;50.286;9.452;2023-04-16T11:01:29;11.68;;;4.93;;
79088;SDS011;68489;50.286;9.452;2023-04-16T11:03:58;12.35;;;5.47;;
79088;SDS011;68489;50.286;9.452;2023-04-16T11:06:27;10.82;;;4.88;;
79088;SDS011;68489;50.286;9.452;2023-04-16T11:08:53;10.82;;;4.90;;
79088;SDS011;68489;50.286;9.452;2023-04-16T11:11:19;10.35;;;5.00;;
79088;SDS011;68489;50.286;9.452;2023-04-16T11:13:45;12.05;;;4.80;;
79088;SDS011;68489;50.286;9.452;2023-04-16T11:16:12;11.25;;;4.88;;
79088;SDS011;68489;50.286;9.452;2023-04-16T11:18:38;10.38;;;4.97;;
79088;SDS011;68489;50.286;9.452;2023-04-16T11:21:09;10.25;;;5.00;;
79088;SDS011;68489;50.286;9.452;2023-04-16T11:23:46;11.15;;;4.95;;
79088;SDS011;68489;50.286;9.452;2023-04-16T11:26:22;11.07;;;4.90;;
79088;SDS011;68489;50.286;9.452;2023-04-16T11:28:48;11.23;;;5.18;;
79088;SDS011;68489;50.286;9.452;2023-04-16T11:31:14;9.93;;;4.72;;
79088;SDS011;68489;50.286;9.452;2023-04-16T11:33:39;9.48;;;4.45;;
79088;SDS011;68489;50.286;9.452;2023-04-16T11:36:06;11.00;;;4.55;;
79088;SDS011;68489;50.286;9.452;2023-04-16T11:38:35;10.40;;;4.60;;
79088;SDS011;68489;50.286;9.452;2023-04-16T11:43:27;11.70;;;3.95;;
79088;SDS011;68489;50.286;9.452;2023-04-16T11:45:59;11.10;;;4.13;;
79088;SDS011;68489;50.286;9.452;2023-04-16T11:48:30;10.50;;;3.90;;
79088;SDS011;68489;50.286;9.452;2023-04-16T11:51:11;9.43;;;3.72;;
79088;SDS011;68489;50.286;9.452;2023-04-16T11:53:43;9.63;;;3.87;;
79088;SDS011;68489;50.286;9.452;2023-04-16T11:56:27;9.38;;;3.83;;
79088;SDS011;68489;50.286;9.452;2023-04-16T11:59:07;8.45;;;3.33;;
79088;SDS011;68489;50.286;9.452;2023-04-16T12:01:33;9.40;;;3.90;;
79088;SDS011;68489;50.286;9.452;2023-04-16T12:04:00;9.43;;;3.20;;
79088;SDS011;68489;50.286;9.452;2023-04-16T12:06:26;8.45;;;3.67;;
79088;SDS011;68489;50.286;9.452;2023-04-16T12:08:52;8.18;;;3.03;;
79088;SDS011;68489;50.286;9.452;2023-04-16T12:11:17;7.93;;;2.47;;
79088;SDS011;68489;50.286;9.452;2023-04-16T12:13:42;7.67;;;2.77;;
79088;SDS011;68489;50.286;9.452;2023-04-16T12:16:34;7.22;;;2.90;;
79088;SDS011;68489;50.286;9.452;2023-04-16T12:19:03;7.47;;;2.85;;
79088;SDS011;68489;50.286;9.452;2023-04-16T12:21:39;7.03;;;2.65;;
79088;SDS011;68489;50.286;9.452;2023-04-16T12:24:06;7.85;;;3.15;;
79088;SDS011;68489;50.286;9.452;2023-04-16T12:26:42;5.78;;;2.05;;
79088;SDS011;68489;50.286;9.452;2023-04-16T12:31:41;5.65;;;1.73;;
79088;SDS011;68489;50.286;9.452;2023-04-16T12:34:07;7.05;;;2.33;;
79088;SDS011;68489;50.286;9.452;2023-04-16T12:36:32;7.13;;;2.40;;
79088;SDS011;68489;50.286;9.452;2023-04-16T12:38:57;7.00;;;2.40;;
79088;SDS011;68489;50.286;9.452;2023-04-16T12:41:22;6.10;;;1.67;;
79088;SDS011;68489;50.286;9.452;2023-04-16T12:43:48;8.77;;;2.40;;
79088;SDS011;68489;50.286;9.452;2023-04-16T12:46:13;6.37;;;2.30;;
79088;SDS011;68489;50.286;9.452;2023-04-16T12:48:38;7.00;;;1.90;;
79088;SDS011;68489;50.286;9.452;2023-04-16T12:51:04;7.25;;;2.08;;
79088;SDS011;68489;50.286;9.452;2023-04-16T12:53:29;5.95;;;1.95;;
79088;SDS011;68489;50.286;9.452;2023-04-16T12:55:55;6.60;;;2.03;;
79088;SDS011;68489;50.286;9.452;2023-04-16T12:58:20;5.97;;;2.40;;
79088;SDS011;68489;50.286;9.452;2023-04-16T13:00:45;6.27;;;2.17;;
79088;SDS011;68489;50.286;9.452;2023-04-16T13:03:10;8.77;;;3.03;;
79088;SDS011;68489;50.286;9.452;2023-04-16T13:05:36;29.17;;;14.87;;
79088;SDS011;68489;50.286;9.452;2023-04-16T13:08:01;6.80;;;2.33;;
79088;SDS011;68489;50.286;9.452;2023-04-16T13:10:26;6.50;;;2.33;;
79088;SDS011;68489;50.286;9.452;2023-04-16T13:12:52;6.43;;;1.80;;
79088;SDS011;68489;50.286;9.452;2023-04-16T13:15:18;5.60;;;2.00;;
79088;SDS011;68489;50.286;9.452;2023-04-16T13:17:43;6.70;;;2.17;;
79088;SDS011;68489;50.286;9.452;2023-04-16T13:20:09;6.97;;;2.23;;
79088;SDS011;68489;50.286;9.452;2023-04-16T13:22:34;7.85;;;2.42;;
79088;SDS011;68489;50.286;9.452;2023-04-16T13:24:59;7.00;;;2.60;;
79088;SDS011;68489;50.286;9.452;2023-04-16T13:27:25;7.77;;;2.87;;
79088;SDS011;68489;50.286;9.452;2023-04-16T13:29:50;8.77;;;3.28;;
79088;SDS011;68489;50.286;9.452;2023-04-16T13:32:15;11.40;;;4.33;;
79088;SDS011;68489;50.286;9.452;2023-04-16T13:34:42;9.23;;;3.13;;
79088;SDS011;68489;50.286;9.452;2023-04-16T13:37:08;9.43;;;3.42;;
79088;SDS011;68489;50.286;9.452;2023-04-16T13:39:33;8.67;;;3.13;;
79088;SDS011;68489;50.286;9.452;2023-04-16T13:41:58;9.47;;;3.77;;
79088;SDS011;68489;50.286;9.452;2023-04-16T13:44:24;8.50;;;3.63;;
79088;SDS011;68489;50.286;9.452;2023-04-16T13:46:49;10.77;;;4.07;;
79088;SDS011;68489;50.286;9.452;2023-04-16T13:49:14;9.30;;;4.20;;
79088;SDS011;68489;50.286;9.452;2023-04-16T13:51:41;10.23;;;4.22;;
79088;SDS011;68489;50.286;9.452;2023-04-16T13:54:07;10.23;;;4.20;;
79088;SDS011;68489;50.286;9.452;2023-04-16T13:56:32;10.23;;;4.13;;
79088;SDS011;68489;50.286;9.452;2023-04-16T13:58:58;13.57;;;5.67;;
79088;SDS011;68489;50.286;9.452;2023-04-16T14:01:23;10.53;;;4.43;;
79088;SDS011;68489;50.286;9.452;2023-04-16T14:03:48;13.37;;;5.43;;
79088;SDS011;68489;50.286;9.452;2023-04-16T14:06:13;12.40;;;5.10;;
79088;SDS011;68489;50.286;9.452;2023-04-16T14:08:41;14.55;;;5.22;;
79088;SDS011;68489;50.286;9.452;2023-04-16T14:11:07;11.13;;;4.47;;
79088;SDS011;68489;50.286;9.452;2023-04-16T14:13:33;13.52;;;5.57;;
79088;SDS011;68489;50.286;9.452;2023-04-16T14:15:58;11.07;;;4.67;;
79088;SDS011;68489;50.286;9.452;2023-04-16T14:18:23;12.95;;;5.55;;
79088;SDS011;68489;50.286;9.452;2023-04-16T14:20:49;11.00;;;5.13;;
79088;SDS011;68489;50.286;9.452;2023-04-16T14:23:14;14.50;;;5.57;;
79088;SDS011;68489;50.286;9.452;2023-04-16T14:25:39;12.53;;;5.07;;
79088;SDS011;68489;50.286;9.452;2023-04-16T14:28:05;14.07;;;5.37;;
79088;SDS011;68489;50.286;9.452;2023-04-16T14:30:30;11.50;;;4.60;;
79088;SDS011;68489;50.286;9.452;2023-04-16T14:32:55;14.03;;;6.43;;
79088;SDS011;68489;50.286;9.452;2023-04-16T14:35:21;14.82;;;5.20;;
79088;SDS011;68489;50.286;9.452;2023-04-16T14:37:47;17.35;;;6.18;;